createdAt,value
2023-10-30T00:03:42.148Z,65.28
2023-10-30T00:13:45.123Z,65.06
2023-10-30T00:23:49.252Z,65.24
2023-10-30T00:33:52.171Z,65.88
2023-10-30T00:43:56.375Z,66.30
2023-10-30T00:53:59.209Z,67.44
2023-10-30T01:04:03.490Z,67.85
2023-10-30T01:14:06.549Z,67.53
2023-10-30T01:24:11.964Z,66.76
2023-10-30T01:34:14.867Z,66.48
2023-10-30T01:44:19.041Z,66.19
2023-10-30T01:54:22.046Z,66.26
2023-10-30T02:04:26.456Z,66.11
2023-10-30T02:14:31.510Z,67.12
2023-10-30T02:24:38.630Z,67.36
2023-10-30T02:34:45.969Z,67.06
2023-10-30T02:44:48.790Z,67.41
2023-10-30T02:54:53.008Z,66.55
2023-10-30T03:04:55.849Z,67.57
2023-10-30T03:15:00.118Z,67.15
2023-10-30T03:25:03.065Z,67.45
2023-10-30T03:35:08.785Z,66.82
2023-10-30T03:45:11.843Z,66.68
2023-10-30T03:55:16.292Z,66.69
2023-10-30T04:05:19.117Z,67.84
2023-10-30T04:15:23.274Z,67.45
2023-10-30T04:25:27.063Z,67.43
2023-10-30T04:35:31.604Z,67.04
2023-10-30T04:45:34.444Z,67.78
2023-10-30T04:55:38.633Z,67.19
2023-10-30T05:05:41.476Z,67.35
2023-10-30T05:15:45.811Z,69.56
2023-10-30T05:25:48.721Z,68.66
2023-10-30T05:35:56.001Z,68.41
2023-10-30T05:45:58.980Z,68.74
2023-10-30T05:56:03.167Z,69.04
2023-10-30T06:06:07.105Z,69.64
2023-10-30T06:16:15.967Z,69.80
2023-10-30T06:26:18.833Z,70.78
2023-10-30T06:36:23.048Z,71.04
2023-10-30T06:46:26.112Z,71.23
2023-10-30T06:56:30.301Z,71.51
2023-10-30T07:06:33.151Z,71.46
2023-10-30T07:16:45.907Z,71.90
2023-10-30T07:26:56.088Z,71.91
2023-10-30T07:37:00.910Z,71.75
2023-10-30T07:47:03.929Z,70.93
2023-10-30T07:57:09.313Z,71.71
2023-10-30T08:07:12.386Z,70.35
2023-10-30T08:17:16.596Z,69.74
2023-10-30T08:27:19.424Z,69.07
2023-10-30T08:37:23.790Z,64.54
2023-10-30T08:47:26.630Z,59.77
2023-10-30T08:57:30.816Z,56.78
2023-10-30T09:07:34.120Z,53.77
2023-10-30T09:17:38.626Z,54.25
2023-10-30T09:27:41.537Z,53.50
2023-10-30T09:37:45.752Z,55.77
2023-10-30T09:47:49.306Z,59.56
2023-10-30T09:57:54.621Z,58.50
2023-10-30T10:07:58.129Z,53.38
2023-10-30T10:18:05.212Z,53.62
2023-10-30T10:28:11.156Z,49.51
2023-10-30T10:38:18.098Z,50.33
2023-10-30T10:48:22.438Z,51.95
2023-10-30T10:58:36.440Z,53.33
2023-10-30T11:08:47.425Z,56.21
2023-10-30T11:18:54.060Z,57.26
2023-10-30T11:28:56.934Z,58.83
2023-10-30T11:39:11.749Z,59.57
2023-10-30T11:49:15.227Z,59.15
2023-10-30T11:59:19.914Z,59.53
2023-10-30T12:09:24.182Z,59.62
2023-10-30T12:19:28.628Z,59.99
2023-10-30T12:29:33.316Z,61.35
2023-10-30T12:39:41.450Z,61.43
2023-10-30T12:49:45.399Z,60.71
2023-10-30T12:59:49.637Z,60.19
2023-10-30T13:09:52.542Z,60.68
2023-10-30T13:19:56.984Z,61.47
2023-10-30T13:30:01.341Z,62.59
2023-10-30T13:40:07.846Z,61.68
2023-10-30T13:50:11.176Z,61.11
2023-10-30T14:00:16.189Z,61.57
2023-10-30T14:10:19.233Z,63.60
2023-10-30T14:20:23.459Z,63.67
2023-10-30T14:30:27.029Z,63.95
2023-10-30T14:40:31.633Z,64.81
2023-10-30T14:50:34.465Z,64.88
2023-10-30T15:00:38.690Z,65.88
2023-10-30T15:10:41.602Z,67.40
2023-10-30T15:20:45.776Z,67.78
2023-10-30T15:30:52.760Z,68.81
2023-10-30T15:40:56.960Z,69.12
2023-10-30T15:50:59.775Z,69.35
2023-10-30T16:01:04.010Z,69.93
2023-10-30T16:21:16.764Z,70.81
2023-10-30T16:31:19.990Z,71.48
2023-10-30T16:41:24.334Z,72.06
2023-10-30T16:51:27.176Z,72.46
2023-10-30T17:01:31.716Z,73.03
2023-10-30T17:11:34.545Z,73.02
2023-10-30T17:21:38.728Z,73.49
2023-10-30T17:31:42.093Z,73.66
2023-10-30T17:41:46.226Z,74.09
2023-10-30T17:51:49.007Z,73.64
2023-10-30T18:01:56.924Z,74.15
2023-10-30T18:12:00.209Z,74.30
2023-10-30T18:22:05.251Z,74.43
2023-10-30T18:32:23.312Z,74.29
2023-10-30T18:42:31.188Z,74.97
2023-10-30T18:52:49.383Z,75.32
2023-10-30T19:02:54.580Z,75.56
2023-10-30T19:12:57.412Z,75.42
2023-10-30T19:23:04.920Z,75.78
2023-10-30T19:33:07.989Z,75.77
2023-10-30T19:43:12.212Z,75.12
2023-10-30T19:53:15.330Z,75.70
2023-10-30T20:03:20.899Z,76.06
2023-10-30T20:13:24.969Z,75.85
2023-10-30T20:23:29.175Z,76.20
2023-10-30T20:33:32.053Z,75.92
2023-10-30T20:43:36.168Z,75.79
2023-10-30T20:53:39.224Z,76.21
2023-10-30T21:03:43.439Z,76.08
2023-10-30T21:14:08.253Z,76.01
2023-10-30T21:24:12.482Z,76.73
2023-10-30T21:34:15.320Z,76.62
2023-10-30T21:44:19.441Z,76.71
2023-10-30T21:54:23.455Z,76.92
2023-10-30T22:04:28.029Z,76.77
2023-10-30T22:14:30.839Z,76.81
2023-10-30T22:24:35.038Z,76.93
2023-10-30T22:34:38.816Z,76.80
2023-10-30T22:44:42.992Z,76.44
2023-10-30T22:54:46.359Z,76.69
2023-10-30T23:04:50.581Z,75.81
2023-10-30T23:14:53.451Z,74.31
2023-10-30T23:24:57.643Z,73.12
2023-10-30T23:35:00.806Z,72.18
2023-10-30T23:45:05.950Z,71.26
2023-10-30T23:55:09.502Z,71.11
